Time;durP1;ratioP1;P1;durP2;ratioP2;P2;SDS_P1;SDS_P2;PMS_P1;PMS_P2;Temp;Humidity;BMP_temperature;BMP_pressure;BME280_temperature;BME280_humidity;BME280_pressure;Samples;Min_cycle;Max_cycle;Signal;HPM_P1;HPM_P2
2021/08/17 00:00:07;;;;;;;44.65;27.10;;;;;;;13.27;78.57;99900.66;5023504;28;20033;-71
2021/08/17 00:02:33;;;;;;;52.70;27.20;;;;;;;13.28;79.26;99896.19;5023095;28;20134;-71
2021/08/17 00:04:58;;;;;;;39.47;24.73;;;;;;;13.27;79.22;99894.50;5025038;28;20053;-71
2021/08/17 00:07:24;;;;;;;42.53;26.83;;;;;;;13.26;79.14;99896.25;5024446;28;20112;-71
2021/08/17 00:09:49;;;;;;;40.03;23.98;;;;;;;13.27;78.97;99898.00;5024381;28;20801;-71
2021/08/17 00:12:15;;;;;;;47.47;25.33;;;;;;;13.24;78.78;99900.81;5006271;28;20561;-71
2021/08/17 00:14:40;;;;;;;40.65;26.17;;;;;;;13.23;79.66;99901.72;5005033;28;20045;-71
2021/08/17 00:17:10;;;;;;;44.72;27.23;;;;;;;13.21;79.21;99897.47;5003223;28;20038;-71
2021/08/17 00:19:40;;;;;;;43.92;24.98;;;;;;;13.22;79.21;99896.53;5004082;28;20050;-71
2021/08/17 00:22:07;;;;;;;43.03;26.20;;;;;;;13.21;79.75;99900.97;4985622;28;20088;-71
2021/08/17 00:24:36;;;;;;;47.20;26.80;;;;;;;13.22;79.39;99896.53;4995795;28;20105;-71
2021/08/17 00:27:02;;;;;;;46.83;25.50;;;;;;;13.19;79.53;99888.75;5003997;28;20042;-70
2021/08/17 00:29:28;;;;;;;41.80;25.17;;;;;;;13.19;79.33;99889.63;5004601;28;20033;-71
2021/08/17 00:31:53;;;;;;;46.55;27.80;;;;;;;13.14;79.20;99888.16;5003815;28;20080;-70
2021/08/17 00:34:18;;;;;;;40.40;25.27;;;;;;;13.10;78.89;99877.78;5004225;28;20061;-71
2021/08/17 00:36:45;;;;;;;46.38;26.42;;;;;;;13.09;79.40;99884.03;5003399;28;20045;-71
2021/08/17 00:39:11;;;;;;;49.05;25.80;;;;;;;13.11;79.17;99891.84;4999953;28;20057;-71
2021/08/17 00:41:38;;;;;;;51.15;24.98;;;;;;;13.11;78.76;99889.19;4984983;28;20525;-71
2021/08/17 00:44:05;;;;;;;42.40;24.20;;;;;;;13.09;79.10;99883.13;4984893;28;20376;-71
2021/08/17 00:46:31;;;;;;;44.28;25.50;;;;;;;13.11;79.02;99887.41;4984044;28;20042;-71
2021/08/17 00:48:57;;;;;;;48.28;25.50;;;;;;;13.10;78.46;99885.72;4984713;28;20073;-71
2021/08/17 00:51:22;;;;;;;45.83;25.48;;;;;;;13.08;79.31;99884.09;4982177;28;20066;-71
2021/08/17 00:53:50;;;;;;;43.63;24.20;;;;;;;13.04;79.09;99878.13;4982743;28;20051;-71
2021/08/17 00:56:15;;;;;;;44.88;26.33;;;;;;;13.01;78.96;99880.09;4985315;28;20038;-71
2021/08/17 00:58:41;;;;;;;42.13;24.90;;;;;;;12.98;79.10;99873.19;4984731;28;20053;-71
2021/08/17 01:01:06;;;;;;;42.67;26.60;;;;;;;12.95;78.59;99877.81;4961211;28;20048;-72
2021/08/17 01:03:31;;;;;;;49.40;27.50;;;;;;;12.95;79.48;99881.31;4984519;28;20999;-70
2021/08/17 01:06:00;;;;;;;44.83;27.45;;;;;;;12.93;78.85;99882.34;4982678;28;20038;-70
2021/08/17 01:08:28;;;;;;;41.05;23.92;;;;;;;12.93;79.37;99888.47;4983692;28;20561;-71
2021/08/17 01:10:53;;;;;;;43.60;25.80;;;;;;;12.92;79.16;99888.56;4983552;28;20045;-70
2021/08/17 01:13:23;;;;;;;43.90;24.88;;;;;;;12.91;78.93;99885.06;4984468;28;20038;-70
2021/08/17 01:15:48;;;;;;;42.13;26.60;;;;;;;12.91;79.13;99889.50;5003619;28;20850;-70
2021/08/17 01:18:14;;;;;;;49.33;28.42;;;;;;;12.89;79.25;99890.44;5002584;28;20034;-71
2021/08/17 01:20:41;;;;;;;48.03;26.23;;;;;;;12.91;78.87;99885.06;5003198;28;20113;-70
2021/08/17 01:23:06;;;;;;;47.08;28.13;;;;;;;12.89;78.87;99884.28;5003644;28;20411;-70
2021/08/17 01:25:34;;;;;;;46.25;27.27;;;;;;;12.89;78.90;99885.13;5003673;28;20045;-70
2021/08/17 01:27:59;;;;;;;44.40;25.73;;;;;;;12.90;78.81;99891.31;5002375;28;20117;-71
2021/08/17 01:30:24;;;;;;;43.55;25.90;;;;;;;12.91;78.54;99879.78;5003327;28;20160;-70
2021/08/17 01:32:50;;;;;;;47.15;25.95;;;;;;;12.92;78.94;99883.25;5003714;28;20046;-70
2021/08/17 01:35:15;;;;;;;47.28;26.00;;;;;;;12.90;79.41;99883.38;5002912;28;20406;-70
2021/08/17 01:37:41;;;;;;;50.85;26.48;;;;;;;12.90;79.67;99893.97;5002715;28;20038;-70
2021/08/17 01:40:09;;;;;;;48.20;26.38;;;;;;;12.90;79.60;99886.03;4992325;28;20046;-70
2021/08/17 01:42:36;;;;;;;49.80;26.73;;;;;;;12.93;78.91;99893.78;4983403;28;20134;-70
2021/08/17 01:45:02;;;;;;;42.10;25.15;;;;;;;12.91;79.04;99890.34;4981657;28;20038;-70
2021/08/17 01:47:31;;;;;;;40.55;23.88;;;;;;;12.91;79.24;99887.72;4982747;28;20042;-70
2021/08/17 01:49:59;;;;;;;48.90;27.73;;;;;;;12.89;79.69;99890.44;4983847;28;20030;-70
2021/08/17 01:52:24;;;;;;;48.35;25.13;;;;;;;12.89;79.14;99890.44;4994281;28;20034;-69
2021/08/17 01:54:49;;;;;;;49.45;26.58;;;;;;;12.86;79.46;99890.63;5003871;28;20038;-70
2021/08/17 01:57:15;;;;;;;49.13;25.55;;;;;;;12.83;79.60;99879.38;5002275;28;20045;-70
2021/08/17 01:59:40;;;;;;;48.78;24.20;;;;;;;12.82;79.77;99880.28;5002994;28;20494;-70
2021/08/17 02:02:08;;;;;;;49.72;25.85;;;;;;;12.83;79.32;99887.31;5003696;28;20561;-70
2021/08/17 02:04:34;;;;;;;49.95;27.67;;;;;;;12.81;79.55;99878.59;5006841;28;20057;-70
2021/08/17 02:07:00;;;;;;;48.70;26.50;;;;;;;12.80;79.82;99877.75;5006548;28;20054;-70
2021/08/17 02:09:25;;;;;;;45.58;27.00;;;;;;;12.79;79.80;99875.19;5007310;28;20042;-70
2021/08/17 02:11:50;;;;;;;46.15;23.67;;;;;;;12.79;79.62;99875.19;5006910;28;20056;-70
2021/08/17 02:14:16;;;;;;;51.63;25.92;;;;;;;12.80;79.95;99868.97;5006930;28;20379;-70
2021/08/17 02:16:41;;;;;;;46.60;23.55;;;;;;;12.79;79.80;99873.38;5005813;28;20040;-70
2021/08/17 02:19:06;;;;;;;44.22;25.08;;;;;;;12.80;80.02;99875.09;5003601;28;20061;-70
2021/08/17 02:21:32;;;;;;;46.58;25.70;;;;;;;12.79;80.26;99872.53;5006192;28;20084;-70
2021/08/17 02:23:57;;;;;;;46.00;24.88;;;;;;;12.78;79.84;99874.34;5005150;28;20640;-70
2021/08/17 02:26:22;;;;;;;41.28;23.15;;;;;;;12.77;79.94;99874.41;5006568;28;20546;-70
2021/08/17 02:28:47;;;;;;;46.92;26.60;;;;;;;12.76;80.00;99875.38;5010434;28;20624;-70
2021/08/17 02:31:13;;;;;;;47.70;25.50;;;;;;;12.74;80.36;99874.59;5006405;28;20048;-69
2021/08/17 02:33:38;;;;;;;46.63;24.67;;;;;;;12.76;79.78;99875.38;5006606;28;20481;-70
2021/08/17 02:36:04;;;;;;;42.33;25.02;;;;;;;12.75;80.27;99878.94;5007038;28;20144;-70
2021/08/17 02:38:30;;;;;;;51.65;24.60;;;;;;;12.73;80.04;99875.53;5005671;28;20044;-70
2021/08/17 02:40:55;;;;;;;40.70;24.35;;;;;;;12.71;80.49;99877.41;5003503;28;20785;-69
2021/08/17 02:43:24;;;;;;;46.65;25.60;;;;;;;12.69;80.02;99877.50;5006609;28;20415;-70
2021/08/17 02:45:51;;;;;;;39.17;24.58;;;;;;;12.69;80.03;99882.78;5006814;28;20041;-70
2021/08/17 02:48:16;;;;;;;55.00;26.67;;;;;;;12.70;79.94;99875.69;5003892;28;20046;-70
2021/08/17 02:50:42;;;;;;;45.63;24.38;;;;;;;12.70;79.23;99883.63;5006374;28;20064;-70
2021/08/17 02:53:07;;;;;;;43.35;24.35;;;;;;;12.64;79.28;99879.53;5006291;28;20076;-70
2021/08/17 02:55:32;;;;;;;47.03;23.75;;;;;;;12.63;79.70;99888.44;5006187;28;20030;-70
2021/08/17 02:58:05;;;;;;;47.33;25.52;;;;;;;12.62;79.74;99882.25;5005909;28;20042;-70
2021/08/17 03:00:30;;;;;;;41.85;25.38;;;;;;;12.60;80.06;99880.66;5004636;28;20038;-70
2021/08/17 03:02:55;;;;;;;43.25;23.98;;;;;;;12.59;80.16;99877.16;5005809;28;20049;-70
2021/08/17 03:05:21;;;;;;;48.47;27.77;;;;;;;12.53;79.55;99881.94;5006138;28;20037;-70
2021/08/17 03:07:48;;;;;;;48.83;26.92;;;;;;;12.53;80.17;99887.22;5005349;28;20041;-71
2021/08/17 03:10:13;;;;;;;45.13;25.23;;;;;;;12.50;80.31;99882.94;5005977;28;20069;-70
2021/08/17 03:12:38;;;;;;;41.53;25.23;;;;;;;12.55;79.71;99890.63;5005684;28;20034;-71
2021/08/17 03:15:04;;;;;;;44.95;25.48;;;;;;;12.52;79.81;99886.38;5005424;28;20041;-71
2021/08/17 03:17:30;;;;;;;47.28;25.75;;;;;;;12.50;79.53;99893.53;5005353;28;20446;-70
2021/08/17 03:19:55;;;;;;;49.97;25.00;;;;;;;12.49;79.41;99889.19;5006176;28;20120;-70
2021/08/17 03:22:20;;;;;;;48.05;25.17;;;;;;;12.48;79.39;99883.97;5006458;28;20130;-70
2021/08/17 03:24:46;;;;;;;49.97;26.73;;;;;;;12.49;79.61;99880.41;5006064;28;20568;-71
2021/08/17 03:27:12;;;;;;;47.05;25.55;;;;;;;12.51;80.09;99879.38;5003586;28;20038;-71
2021/08/17 03:29:37;;;;;;;52.25;25.63;;;;;;;12.52;79.30;99875.78;5005226;28;20473;-71
2021/08/17 03:32:03;;;;;;;38.15;21.48;;;;;;;12.56;79.37;99881.78;5004989;28;20049;-71
2021/08/17 03:34:28;;;;;;;51.33;26.00;;;;;;;12.57;79.48;99878.19;5005376;28;20074;-71
2021/08/17 03:36:53;;;;;;;48.08;27.48;;;;;;;12.57;79.10;99876.38;5004939;28;20041;-71
2021/08/17 03:39:19;;;;;;;58.60;25.52;;;;;;;12.60;79.70;99870.94;4999592;28;20124;-70
2021/08/17 03:41:44;;;;;;;39.55;24.98;;;;;;;12.61;78.97;99872.63;4986165;28;20058;-69
2021/08/17 03:44:09;;;;;;;47.88;25.88;;;;;;;12.58;78.79;99869.31;4985894;28;20035;-71
2021/08/17 03:46:35;;;;;;;45.97;24.83;;;;;;;12.57;78.97;99876.38;4985011;28;20503;-70
2021/08/17 03:49:00;;;;;;;45.63;24.45;;;;;;;12.53;79.62;99871.34;4985568;28;20062;-71
2021/08/17 03:51:25;;;;;;;45.83;25.30;;;;;;;12.58;78.93;99871.97;4985482;28;20050;-70
2021/08/17 03:53:51;;;;;;;48.70;26.23;;;;;;;12.59;79.29;99879.81;4996993;28;20460;-71
2021/08/17 03:56:16;;;;;;;46.95;24.45;;;;;;;12.60;79.55;99867.44;5003503;28;20030;-71
2021/08/17 03:58:42;;;;;;;46.08;26.05;;;;;;;12.61;79.58;99874.44;5005708;28;20729;-69
2021/08/17 04:01:07;;;;;;;45.05;25.30;;;;;;;12.64;79.14;99869.81;5005056;28;20558;-69
2021/08/17 04:03:32;;;;;;;53.30;26.95;;;;;;;12.67;79.15;99879.38;5004695;28;20489;-70
2021/08/17 04:05:58;;;;;;;47.90;25.67;;;;;;;12.71;79.71;99880.91;5004614;28;20046;-69
2021/08/17 04:08:23;;;;;;;39.65;23.15;;;;;;;12.70;79.17;99873.94;5004447;28;20040;-70
2021/08/17 04:10:48;;;;;;;49.20;27.25;;;;;;;12.71;79.22;99872.97;5005705;28;20041;-67
2021/08/17 04:13:14;;;;;;;53.97;26.02;;;;;;;12.70;79.72;99873.06;5004209;28;20057;-68
2021/08/17 04:15:39;;;;;;;44.17;24.42;;;;;;;12.75;79.64;99877.16;5004750;28;20040;-69
2021/08/17 04:18:05;;;;;;;47.58;26.15;;;;;;;12.82;79.10;99867.94;5007843;28;20153;-71
2021/08/17 04:20:32;;;;;;;47.10;26.40;;;;;;;12.80;79.46;99869.81;5024130;28;20056;-69
2021/08/17 04:22:57;;;;;;;45.17;25.67;;;;;;;12.74;79.31;99870.16;5024000;28;20091;-70
2021/08/17 04:25:22;;;;;;;47.35;27.38;;;;;;;12.76;79.62;99881.50;5022599;28;20038;-69
2021/08/17 04:27:48;;;;;;;66.07;26.30;;;;;;;12.81;79.34;99886.53;5023875;28;20088;-69
2021/08/17 04:30:14;;;;;;;44.95;26.48;;;;;;;12.81;79.13;99887.38;5024365;28;20051;-70
2021/08/17 04:32:39;;;;;;;48.70;27.95;;;;;;;12.83;79.62;99874.94;5024446;28;20840;-71
2021/08/17 04:35:05;;;;;;;50.80;28.35;;;;;;;12.86;79.29;99880.03;5023342;28;20140;-70
2021/08/17 04:37:31;;;;;;;44.65;25.65;;;;;;;12.89;78.81;99885.13;5005880;28;20511;-69
2021/08/17 04:39:56;;;;;;;50.00;28.58;;;;;;;12.91;79.60;99869.19;5004047;28;20135;-71
2021/08/17 04:42:21;;;;;;;45.92;26.92;;;;;;;12.94;79.21;99870.81;4985375;28;20137;-70
2021/08/17 04:44:47;;;;;;;49.28;26.30;;;;;;;12.94;79.44;99876.09;4984474;28;20038;-69
2021/08/17 04:47:19;;;;;;;;;;;;;;;12.98;79.71;99880.28;5079920;27;20930;-69
2021/08/17 04:49:44;;;;;;;44.33;25.23;;;;;;;13.02;79.27;99880.03;5080485;27;21018;-70
2021/08/17 04:52:09;;;;;;;48.72;27.00;;;;;;;13.11;79.35;99871.53;5080441;27;20060;-70
2021/08/17 04:54:37;;;;;;;50.28;27.85;;;;;;;13.13;78.91;99886.47;5080227;27;20047;-70
2021/08/17 04:57:03;;;;;;;56.63;28.83;;;;;;;13.13;79.33;99897.06;5079474;27;20415;-75
2021/08/17 04:59:28;;;;;;;51.13;27.50;;;;;;;13.07;79.02;99891.19;5080090;27;20036;-69
2021/08/17 05:01:54;;;;;;;47.75;26.38;;;;;;;13.08;79.51;99899.97;5078972;27;20827;-67
2021/08/17 05:04:19;;;;;;;46.42;24.83;;;;;;;13.16;79.56;99904.81;5079680;27;20037;-68
2021/08/17 05:06:44;;;;;;;45.10;24.17;;;;;;;13.27;78.86;99902.44;5079516;27;20123;-71
2021/08/17 05:09:10;;;;;;;50.42;28.15;;;;;;;13.34;78.80;99914.38;5080047;27;20131;-69
2021/08/17 05:11:35;;;;;;;42.35;24.60;;;;;;;13.38;78.67;99921.19;5079462;27;20112;-69
2021/08/17 05:14:00;;;;;;;45.25;24.38;;;;;;;13.40;78.80;99916.66;5078776;27;20059;-71
2021/08/17 05:16:26;;;;;;;46.65;27.60;;;;;;;13.32;78.30;99916.28;5080126;27;20056;-72
2021/08/17 05:18:51;;;;;;;53.10;25.55;;;;;;;13.36;78.75;99923.06;5079601;27;20040;-69
2021/08/17 05:21:17;;;;;;;50.30;27.90;;;;;;;13.46;78.07;99923.38;5079470;27;20123;-72
2021/08/17 05:23:42;;;;;;;51.60;28.17;;;;;;;13.51;78.38;99931.91;5078735;28;20098;-70
2021/08/17 05:26:07;;;;;;;46.33;27.42;;;;;;;13.51;77.17;99916.91;5078930;27;20040;-70
2021/08/17 05:28:33;;;;;;;53.85;30.45;;;;;;;13.56;77.94;99927.22;5079437;27;20033;-69
2021/08/17 05:30:58;;;;;;;51.67;26.48;;;;;;;13.61;77.79;99925.16;5080529;27;20408;-69
2021/08/17 05:33:24;;;;;;;49.72;25.50;;;;;;;13.60;77.24;99925.22;5079695;27;20112;-69
2021/08/17 05:35:49;;;;;;;47.63;27.00;;;;;;;13.64;77.67;99924.97;5079430;27;20047;-70
2021/08/17 05:38:15;;;;;;;46.90;25.88;;;;;;;13.68;77.42;99921.19;5079434;27;20040;-69
2021/08/17 05:40:40;;;;;;;43.20;24.15;;;;;;;13.73;76.89;99934.13;5079760;27;20058;-69
2021/08/17 05:43:05;;;;;;;46.38;25.55;;;;;;;13.73;77.37;99918.25;5079339;28;20048;-69
2021/08/17 05:45:32;;;;;;;45.70;25.00;;;;;;;13.72;77.18;99924.50;5078761;28;20048;-69
2021/08/17 05:47:58;;;;;;;49.60;27.48;;;;;;;13.78;77.40;99929.41;5077934;28;20550;-71
2021/08/17 05:50:23;;;;;;;41.30;24.77;;;;;;;13.81;76.82;99926.59;5082120;27;20040;-69
2021/08/17 05:52:48;;;;;;;46.55;23.58;;;;;;;13.82;77.00;99938.88;5079364;28;20033;-69
2021/08/17 05:55:14;;;;;;;44.10;25.75;;;;;;;13.79;77.03;99939.09;5060508;28;20032;-71
2021/08/17 05:57:40;;;;;;;40.88;24.38;;;;;;;13.80;77.12;99940.78;5070838;27;20053;-69
2021/08/17 06:00:10;;;;;;;48.13;26.40;;;;;;;13.74;77.35;99941.16;5065703;28;20040;-68
2021/08/17 06:02:35;;;;;;;45.28;26.55;;;;;;;13.76;77.09;99941.94;5065212;28;20073;-70
2021/08/17 06:05:00;;;;;;;45.22;23.77;;;;;;;13.82;77.42;99938.88;5063368;28;20041;-70
2021/08/17 06:07:26;;;;;;;43.97;26.05;;;;;;;13.90;76.84;99941.91;5065428;28;20044;-70
2021/08/17 06:09:51;;;;;;;48.10;26.60;;;;;;;13.92;76.70;99947.97;5065385;28;20040;-70
2021/08/17 06:12:17;;;;;;;42.97;25.08;;;;;;;13.94;76.21;99943.44;5065862;28;20224;-70
2021/08/17 06:14:42;;;;;;;48.13;26.17;;;;;;;14.00;76.81;99949.31;5065283;28;20036;-70
2021/08/17 06:17:08;;;;;;;47.30;24.92;;;;;;;13.99;75.99;99947.63;5064761;28;20808;-71
2021/08/17 06:19:33;;;;;;;46.63;25.02;;;;;;;13.96;76.33;99933.63;5065933;28;20029;-70
2021/08/17 06:21:59;;;;;;;47.80;27.05;;;;;;;13.95;76.46;99939.88;5074656;27;20044;-71
2021/08/17 06:24:24;;;;;;;45.50;25.95;;;;;;;13.99;76.62;99934.38;5085858;27;20028;-71
2021/08/17 06:26:49;;;;;;;44.47;25.02;;;;;;;14.07;76.50;99935.59;5085114;27;20046;-71
2021/08/17 06:29:16;;;;;;;45.25;23.80;;;;;;;14.18;76.18;99934.94;5085597;27;20110;-72
2021/08/17 06:31:41;;;;;;;52.38;26.38;;;;;;;14.15;75.64;99938.66;5085520;27;20036;-69
2021/08/17 06:34:07;;;;;;;44.10;25.25;;;;;;;14.09;75.59;99941.66;5086007;27;20035;-71
2021/08/17 06:36:32;;;;;;;39.03;22.88;;;;;;;14.08;76.29;99936.47;5084443;27;20035;-70
2021/08/17 06:38:58;;;;;;;47.88;27.02;;;;;;;14.06;75.89;99939.22;5082266;27;20820;-69
2021/08/17 06:41:23;;;;;;;42.03;25.05;;;;;;;14.09;75.77;99946.97;5065019;28;20127;-70
2021/08/17 06:43:49;;;;;;;40.83;25.90;;;;;;;14.16;76.12;99947.44;5065118;28;20036;-69
2021/08/17 06:46:14;;;;;;;40.35;23.63;;;;;;;14.25;75.70;99951.31;5064497;28;20089;-68
2021/08/17 06:48:39;;;;;;;36.92;23.90;;;;;;;14.33;75.15;99944.59;5064049;28;20131;-70
2021/08/17 06:51:05;;;;;;;53.40;27.33;;;;;;;14.34;75.05;99942.81;5064773;28;20493;-69
2021/08/17 06:53:30;;;;;;;45.90;25.00;;;;;;;14.37;75.14;99934.63;5065272;28;20400;-72
2021/08/17 06:55:56;;;;;;;46.53;24.52;;;;;;;14.42;75.04;99937.84;5064017;28;20036;-69
2021/08/17 06:58:22;;;;;;;50.25;27.00;;;;;;;14.36;74.90;99935.59;5062424;28;20046;-69
2021/08/17 07:00:48;;;;;;;49.75;26.63;;;;;;;14.33;75.36;99944.59;5063444;28;20488;-68
2021/08/17 07:03:15;;;;;;;48.85;25.38;;;;;;;14.36;75.06;99947.06;5064823;28;20036;-71
2021/08/17 07:05:43;;;;;;;42.58;23.45;;;;;;;14.41;75.11;99943.28;5064655;28;20046;-69
2021/08/17 07:08:10;;;;;;;40.40;23.58;;;;;;;14.42;74.98;99948.47;5063544;28;20063;-69
2021/08/17 07:10:36;;;;;;;40.05;23.35;;;;;;;14.38;74.96;99939.88;5062692;28;20393;-72
2021/08/17 07:13:02;;;;;;;46.30;27.13;;;;;;;14.44;75.01;99935.13;5064834;28;20032;-71
2021/08/17 07:15:27;;;;;;;45.67;26.17;;;;;;;14.43;75.05;99926.31;5064234;28;20040;-69
2021/08/17 07:17:53;;;;;;;41.47;24.55;;;;;;;14.47;74.67;99919.00;5063497;28;20036;-69
2021/08/17 07:20:19;;;;;;;40.25;21.10;;;;;;;14.48;74.86;99931.34;5064191;28;20116;-69
2021/08/17 07:22:45;;;;;;;49.72;24.30;;;;;;;14.45;74.56;99915.59;5062552;28;20051;-69
2021/08/17 07:25:11;;;;;;;39.00;24.27;;;;;;;14.47;74.61;99919.88;5064317;28;20033;-71
2021/08/17 07:27:37;;;;;;;47.63;25.73;;;;;;;14.49;74.66;99903.84;5063421;28;20563;-69
2021/08/17 07:30:07;;;;;;;42.15;22.80;;;;;;;14.52;74.91;99914.25;5065014;28;20128;-72
2021/08/17 07:32:33;;;;;;;46.58;23.08;;;;;;;14.56;74.55;99911.34;5064757;28;20036;-70
2021/08/17 07:34:59;;;;;;;39.20;23.63;;;;;;;14.59;74.67;99902.34;5064898;28;20036;-70
2021/08/17 07:37:24;;;;;;;48.92;22.38;;;;;;;14.60;74.13;99912.03;5064273;28;20055;-72
2021/08/17 07:39:50;;;;;;;47.22;24.98;;;;;;;14.63;74.01;99909.16;5065563;28;20043;-70
2021/08/17 07:42:15;;;;;;;39.38;23.85;;;;;;;14.65;74.20;99917.88;5065404;28;20032;-71
2021/08/17 07:44:41;;;;;;;41.38;22.77;;;;;;;14.66;73.90;99914.25;5065019;28;20031;-70
2021/08/17 07:47:06;;;;;;;35.78;19.20;;;;;;;14.74;74.20;99913.75;5064537;28;20040;-70
2021/08/17 07:49:31;;;;;;;42.30;22.70;;;;;;;14.76;73.94;99918.03;5064652;28;20400;-70
2021/08/17 07:51:57;;;;;;;51.10;25.25;;;;;;;14.85;73.99;99921.06;5065018;28;20463;-73
2021/08/17 07:54:23;;;;;;;40.40;22.40;;;;;;;14.91;73.67;99917.97;5078986;27;20054;-70
2021/08/17 07:56:48;;;;;;;42.38;23.48;;;;;;;14.91;73.35;99925.94;5084076;27;20705;-68
2021/08/17 07:59:14;;;;;;;46.80;22.02;;;;;;;14.93;73.30;99932.88;5084749;27;20036;-71
2021/08/17 08:01:40;;;;;;;37.40;22.00;;;;;;;15.09;73.68;99947.78;5064739;27;20063;-56
2021/08/17 08:04:05;;;;;;;40.75;21.02;;;;;;;15.35;73.18;99946.94;5063828;28;20457;-55
2021/08/17 08:06:30;;;;;;;35.20;21.60;;;;;;;15.67;71.68;99938.59;5066041;27;20112;-53
2021/08/17 08:08:56;;;;;;;41.63;23.00;;;;;;;15.99;69.19;99940.91;5075153;27;20046;-56
2021/08/17 08:11:21;;;;;;;32.13;21.27;;;;;;;16.17;69.16;99942.28;5075063;27;20654;-51
2021/08/17 08:13:47;;;;;;;33.20;20.60;;;;;;;16.20;68.46;99935.91;5072346;27;20043;-51
2021/08/17 08:16:12;;;;;;;30.88;19.63;;;;;;;16.24;68.16;99934.69;5063319;28;20050;-52
2021/08/17 08:18:37;;;;;;;36.05;19.67;;;;;;;16.34;68.23;99935.75;5062414;28;20036;-54
2021/08/17 08:21:03;;;;;;;36.03;21.55;;;;;;;16.34;68.06;99933.09;5064069;28;20127;-54
2021/08/17 08:23:31;;;;;;;29.92;20.55;;;;;;;16.41;67.76;99930.84;5062967;28;20062;-53
2021/08/17 08:25:56;;;;;;;30.42;19.00;;;;;;;16.41;67.79;99928.19;5042628;28;20033;-50
2021/08/17 08:28:21;;;;;;;35.85;20.90;;;;;;;16.50;68.29;99924.88;5042253;28;20049;-54
2021/08/17 08:30:47;;;;;;;38.17;19.67;;;;;;;16.59;68.09;99934.88;5042549;28;20098;-52
2021/08/17 08:33:12;;;;;;;31.73;20.80;;;;;;;16.87;66.55;99943.56;5042377;28;20029;-52
2021/08/17 08:35:40;;;;;;;54.53;27.52;;;;;;;17.02;66.33;99938.91;5043153;28;20090;-52
2021/08/17 08:38:05;;;;;;;30.73;19.98;;;;;;;17.11;65.94;99922.25;5042346;28;20392;-53
2021/08/17 08:40:31;;;;;;;39.75;20.90;;;;;;;17.23;65.46;99917.81;5057734;28;20089;-51
2021/08/17 08:42:56;;;;;;;38.40;22.67;;;;;;;17.26;65.00;99910.44;5062637;28;20146;-53
2021/08/17 08:45:22;;;;;;;32.47;19.52;;;;;;;17.45;64.71;99911.72;5062232;28;20040;-53
2021/08/17 08:47:50;;;;;;;32.58;21.20;;;;;;;17.77;63.12;99907.47;5061460;28;20032;-54
2021/08/17 08:50:16;;;;;;;32.88;20.30;;;;;;;17.92;62.98;99897.44;5062877;28;20158;-55
2021/08/17 08:52:42;;;;;;;30.73;21.63;;;;;;;18.16;62.35;99891.13;5062184;28;20511;-55
2021/08/17 08:55:09;;;;;;;33.47;20.27;;;;;;;18.35;61.58;99885.19;5060902;28;20117;-54
2021/08/17 08:57:35;;;;;;;40.33;21.05;;;;;;;18.41;60.74;99896.22;5061900;28;20759;-55
2021/08/17 09:00:01;;;;;;;31.05;20.13;;;;;;;18.48;60.76;99898.38;5062410;28;20048;-56
2021/08/17 09:02:30;;;;;;;46.97;24.42;;;;;;;18.62;60.05;99903.47;5061868;28;20130;-53
2021/08/17 09:04:59;;;;;;;39.75;23.10;;;;;;;18.61;57.96;99893.78;5059411;28;20037;-51
2021/08/17 09:07:35;;;;;;;39.95;22.63;;;;;;;18.56;59.10;99883.47;5058608;28;20459;-53
2021/08/17 09:10:07;;;;;;;36.55;21.77;;;;;;;18.60;58.21;99887.56;5058666;28;20062;-57
2021/08/17 09:12:42;;;;;;;41.53;20.63;;;;;;;18.76;58.40;99891.72;5059310;28;20036;-54
2021/08/17 09:15:11;;;;;;;29.92;20.88;;;;;;;18.82;58.03;99899.22;5055907;28;20515;-54
2021/08/17 09:17:37;;;;;;;32.58;19.20;;;;;;;18.39;58.75;99887.50;5061630;28;20113;-70
2021/08/17 09:20:03;;;;;;;34.65;19.88;;;;;;;18.45;58.24;99894.16;5062506;28;20499;-71
2021/08/17 09:22:30;;;;;;;30.77;18.73;;;;;;;18.34;58.49;99902.19;5060770;28;20033;-70
2021/08/17 09:24:58;;;;;;;31.65;20.15;;;;;;;18.28;58.81;99902.66;5062499;28;20033;-72
2021/08/17 09:27:32;;;;;;;30.92;19.58;;;;;;;18.75;57.77;99903.31;5062456;28;20109;-76
2021/08/17 09:30:10;;;;;;;32.92;17.60;;;;;;;19.06;57.06;99897.19;5060145;28;20383;-74
2021/08/17 09:32:56;;;;;;;29.63;19.05;;;;;;;18.94;56.66;99908.03;5063705;28;20051;-73
2021/08/17 09:35:23;;;;;;;35.20;18.98;;;;;;;18.62;58.27;99901.66;5063415;27;20037;-71
2021/08/17 09:38:10;;;;;;;28.02;17.50;;;;;;;19.13;56.62;99894.03;5061738;28;20759;-70
2021/08/17 09:40:36;;;;;;;30.63;18.13;;;;;;;19.01;57.06;99890.53;5064211;28;20042;-69
2021/08/17 09:43:16;;;;;;;39.67;19.55;;;;;;;19.01;56.36;99891.38;5063010;28;20451;-71
2021/08/17 09:45:42;;;;;;;28.92;17.85;;;;;;;18.96;56.57;99892.75;5064237;28;20044;-71
2021/08/17 09:48:11;;;;;;;32.22;18.30;;;;;;;18.87;57.23;99892.50;5061286;28;20039;-72
2021/08/17 09:50:41;;;;;;;27.02;16.38;;;;;;;18.95;56.54;99893.69;5062491;28;20409;-71
2021/08/17 09:53:08;;;;;;;36.80;16.52;;;;;;;18.82;55.53;99880.50;5062151;28;20037;-71
2021/08/17 09:55:54;;;;;;;32.03;17.77;;;;;;;18.73;55.42;99878.56;5062136;28;20039;-69
2021/08/17 09:58:33;;;;;;;31.83;16.30;;;;;;;18.42;56.04;99873.06;5061638;28;20250;-69
2021/08/17 10:01:02;;;;;;;29.27;15.32;;;;;;;18.31;56.93;99876.59;5062521;28;20060;-72
2021/08/17 10:03:29;;;;;;;25.95;15.45;;;;;;;18.17;57.39;99883.00;5065191;28;20061;-68
2021/08/17 10:05:55;;;;;;;35.05;14.73;;;;;;;18.05;57.28;99886.66;5065045;28;20028;-69
2021/08/17 10:08:26;;;;;;;30.90;16.42;;;;;;;17.86;57.06;99884.56;5064908;28;20151;-70
2021/08/17 10:10:53;;;;;;;29.90;15.50;;;;;;;17.75;57.14;99892.53;5062787;28;20033;-72
2021/08/17 10:13:21;;;;;;;23.42;14.38;;;;;;;17.71;57.36;99889.25;5064531;28;20037;-70
2021/08/17 10:15:48;;;;;;;30.40;13.95;;;;;;;17.65;57.97;99897.72;5065078;28;20042;-68
2021/08/17 10:18:16;;;;;;;26.52;15.57;;;;;;;17.54;57.69;99893.22;5064802;28;20495;-68
2021/08/17 10:20:44;;;;;;;26.63;15.07;;;;;;;17.41;58.04;99892.44;5063634;28;20557;-69
2021/08/17 10:23:16;;;;;;;33.35;16.67;;;;;;;17.25;58.14;99897.22;5065305;28;20062;-69
2021/08/17 10:25:50;;;;;;;19.10;13.05;;;;;;;17.18;58.74;99891.53;5064453;28;20067;-69
2021/08/17 10:28:36;;;;;;;31.48;15.77;;;;;;;17.17;59.08;99892.47;5064419;28;20404;-69
2021/08/17 10:31:13;;;;;;;23.02;13.20;;;;;;;17.14;59.48;99898.06;5063574;28;20098;-70
2021/08/17 10:33:40;;;;;;;19.70;13.93;;;;;;;17.11;59.65;99896.47;5065185;28;20086;-69
2021/08/17 10:36:07;;;;;;;20.42;13.60;;;;;;;17.14;60.22;99893.56;5065078;28;20040;-72
2021/08/17 10:38:35;;;;;;;25.25;13.73;;;;;;;17.17;59.71;99890.66;5064636;28;20553;-70
2021/08/17 10:41:03;;;;;;;25.05;14.20;;;;;;;17.11;59.88;99884.97;5043703;28;20040;-70
2021/08/17 10:43:31;;;;;;;26.50;15.43;;;;;;;17.13;60.45;99880.34;5045241;28;20033;-69
2021/08/17 10:45:59;;;;;;;20.23;13.38;;;;;;;17.05;59.99;99888.06;5045188;28;20040;-71
2021/08/17 10:51:17;;;;;;;24.70;14.63;;;;;;;16.87;59.88;99891.13;5044679;28;20179;-73
2021/08/17 10:53:44;;;;;;;22.23;14.05;;;;;;;16.89;60.63;99875.06;5044551;28;20064;-69
2021/08/17 10:56:15;;;;;;;25.35;13.88;;;;;;;16.95;60.79;99874.59;5045293;28;20066;-71
2021/08/17 10:58:46;;;;;;;17.95;12.18;;;;;;;16.95;60.61;99880.75;5041171;28;20116;-69
2021/08/17 11:01:12;;;;;;;27.95;13.32;;;;;;;16.98;60.35;99885.00;5051475;28;20041;-69
2021/08/17 11:03:50;;;;;;;20.15;13.43;;;;;;;16.96;59.89;99900.28;5044739;28;20033;-70
2021/08/17 11:06:41;;;;;;;21.10;12.60;;;;;;;16.85;60.19;99886.88;5042420;28;20037;-68
2021/08/17 11:09:16;;;;;;;21.27;12.35;;;;;;;16.83;60.69;99881.66;5050781;28;20115;-70
2021/08/17 11:11:44;;;;;;;20.50;13.90;;;;;;;16.86;60.83;99884.13;5064143;28;20516;-70
2021/08/17 11:14:17;;;;;;;20.38;11.73;;;;;;;16.95;60.81;99872.78;5063801;28;20040;-70
2021/08/17 11:16:46;;;;;;;22.13;12.40;;;;;;;16.95;60.26;99866.59;5063056;28;20046;-70